createdAt,value
2023-02-11T00:05:03.856Z,16.88
2023-02-11T00:10:09.537Z,17.30
2023-02-11T00:15:11.407Z,13.50
2023-02-11T00:20:12.869Z,11.32
2023-02-11T00:25:14.395Z,13.73
2023-02-11T00:30:16.542Z,16.70
2023-02-11T00:35:18.205Z,14.13
2023-02-11T00:40:19.794Z,23.60
2023-02-11T00:45:21.402Z,9.88
2023-02-11T00:50:23.455Z,7.15
2023-02-11T00:55:25.050Z,10.98
2023-02-11T01:00:27.483Z,13.13
2023-02-11T01:05:29.056Z,20.50
2023-02-11T01:10:30.725Z,25.25
2023-02-11T01:15:33.346Z,17.25
2023-02-11T01:20:34.960Z,20.40
2023-02-11T01:25:36.508Z,19.25
2023-02-11T01:30:37.930Z,18.02
2023-02-11T01:35:40.351Z,17.27
2023-02-11T01:40:47.680Z,18.90
2023-02-11T01:45:49.506Z,13.13
2023-02-11T01:50:57.085Z,18.35
2023-02-11T01:56:17.961Z,9.35
2023-02-11T02:01:24.382Z,14.48
2023-02-11T02:06:46.223Z,24.60
2023-02-11T02:11:47.800Z,21.02
2023-02-11T02:16:49.230Z,19.42
2023-02-11T02:21:57.968Z,16.00
2023-02-11T02:27:15.849Z,15.45
2023-02-11T02:32:47.570Z,18.08
2023-02-11T02:38:10.720Z,15.93
2023-02-11T02:43:13.790Z,19.33
2023-02-11T02:48:33.202Z,15.50
2023-02-11T02:54:00.621Z,21.40
2023-02-11T03:04:43.558Z,15.48
2023-02-11T03:09:59.592Z,16.00
2023-02-11T03:15:03.884Z,14.73
2023-02-11T03:20:09.776Z,25.13
2023-02-11T03:25:11.385Z,13.52
2023-02-11T03:30:26.727Z,19.45
2023-02-11T03:35:33.242Z,19.35
2023-02-11T03:40:40.047Z,14.25
2023-02-11T03:50:45.429Z,22.20
2023-02-11T03:55:49.278Z,20.55
2023-02-11T04:00:51.423Z,19.25
2023-02-11T04:05:53.054Z,20.05
2023-02-11T04:10:54.463Z,17.77
2023-02-11T04:15:55.962Z,20.15
2023-02-11T04:20:57.506Z,16.55
2023-02-11T04:25:59.106Z,21.63
2023-02-11T04:31:00.781Z,4.45
2023-02-11T04:36:02.291Z,22.20
2023-02-11T04:41:03.853Z,8.10
2023-02-11T04:46:05.490Z,19.45
2023-02-11T04:51:06.940Z,27.73
2023-02-11T04:56:08.461Z,30.17
2023-02-11T05:01:12.675Z,17.83
2023-02-11T05:06:14.410Z,19.52
2023-02-11T05:11:21.492Z,23.63
2023-02-11T05:16:23.114Z,17.00
2023-02-11T05:21:25.135Z,19.42
2023-02-11T05:26:26.744Z,24.40
2023-02-11T05:31:28.275Z,23.95
2023-02-11T05:36:33.294Z,26.20
2023-02-11T05:41:34.908Z,25.20
2023-02-11T05:46:36.448Z,22.67
2023-02-11T05:51:38.138Z,29.52
2023-02-11T05:56:39.600Z,33.13
2023-02-11T06:01:41.340Z,31.55
2023-02-11T06:06:42.925Z,23.35
2023-02-11T06:11:44.341Z,26.25
2023-02-11T06:16:45.811Z,30.48
2023-02-11T06:21:47.266Z,31.90
2023-02-11T06:26:48.760Z,30.73
2023-02-11T06:31:50.381Z,31.92
2023-02-11T06:36:51.854Z,31.48
2023-02-11T06:41:53.282Z,35.72
2023-02-11T06:46:54.829Z,31.33
2023-02-11T06:51:56.281Z,25.90
2023-02-11T06:56:57.966Z,33.65
2023-02-11T07:01:59.486Z,33.42
2023-02-11T07:07:01.020Z,25.23
2023-02-11T07:12:02.504Z,25.00
2023-02-11T07:17:07.338Z,32.42
2023-02-11T07:22:08.769Z,31.42
2023-02-11T07:27:10.466Z,35.90
2023-02-11T07:32:11.982Z,36.60
2023-02-11T07:37:13.477Z,35.88
2023-02-11T07:42:14.947Z,36.45
2023-02-11T07:47:16.391Z,35.42
2023-02-11T07:52:18.047Z,32.67
2023-02-11T07:57:19.520Z,38.28
2023-02-11T08:02:21.001Z,50.20
2023-02-11T08:07:22.732Z,39.40
2023-02-11T08:12:24.178Z,38.70
2023-02-11T08:17:26.432Z,40.05
2023-02-11T08:22:28.029Z,41.28
2023-02-11T08:27:29.476Z,38.58
2023-02-11T08:32:31.079Z,35.50
2023-02-11T08:37:33.164Z,40.42
2023-02-11T08:42:34.759Z,41.05
2023-02-11T08:47:37.310Z,42.70
2023-02-11T08:52:38.773Z,37.97
2023-02-11T08:57:40.217Z,35.85
2023-02-11T09:02:41.941Z,37.92
2023-02-11T09:07:43.511Z,32.85
2023-02-11T09:12:44.958Z,33.00
2023-02-11T09:17:46.445Z,43.35
2023-02-11T09:22:48.398Z,47.80
2023-02-11T09:27:51.317Z,40.13
2023-02-11T09:32:52.963Z,48.45
2023-02-11T09:37:54.487Z,45.05
2023-02-11T09:43:11.865Z,37.78
2023-02-11T09:48:17.830Z,42.15
2023-02-11T09:53:24.242Z,27.20
2023-02-11T09:58:34.077Z,28.67
2023-02-11T10:03:41.517Z,21.58
2023-02-11T10:08:58.814Z,42.28
2023-02-11T10:14:29.688Z,39.58
2023-02-11T10:19:47.225Z,14.80
2023-02-11T10:24:53.564Z,33.63
2023-02-11T10:30:36.546Z,33.60
2023-02-11T10:35:38.591Z,36.03
2023-02-11T10:40:40.747Z,39.00
2023-02-11T10:45:43.772Z,39.53
2023-02-11T10:50:47.339Z,32.63
2023-02-11T10:55:58.620Z,32.95
2023-02-11T11:01:01.001Z,34.58
2023-02-11T11:06:06.982Z,38.53
2023-02-11T11:11:11.830Z,25.47
2023-02-11T11:16:13.406Z,27.10
2023-02-11T11:21:34.655Z,24.13
2023-02-11T11:26:46.848Z,29.77
2023-02-11T11:32:04.796Z,21.75
2023-02-11T11:37:33.058Z,31.05
2023-02-11T11:42:37.208Z,24.52
2023-02-11T11:48:00.486Z,24.52
2023-02-11T11:53:26.142Z,24.77
2023-02-11T11:58:29.087Z,23.98
2023-02-11T12:03:42.909Z,14.60
2023-02-11T12:08:52.069Z,19.27
2023-02-11T12:14:00.103Z,24.33
2023-02-11T12:19:22.307Z,16.30
2023-02-11T12:24:38.801Z,17.15
2023-02-11T12:30:15.684Z,21.65
2023-02-11T12:35:23.080Z,30.25
2023-02-11T12:40:50.590Z,14.35
2023-02-11T12:46:14.607Z,18.00
2023-02-11T12:51:32.114Z,14.07
2023-02-11T12:56:45.117Z,16.92
2023-02-11T13:01:49.655Z,15.88
2023-02-11T13:06:57.541Z,14.65
2023-02-11T13:12:23.474Z,7.65
2023-02-11T13:17:56.697Z,17.75
2023-02-11T13:23:19.143Z,18.35
2023-02-11T13:28:34.323Z,16.15
2023-02-11T13:33:43.031Z,19.95
2023-02-11T13:39:05.829Z,27.25
2023-02-11T13:44:10.071Z,17.77
2023-02-11T13:49:20.613Z,17.05
2023-02-11T13:54:31.099Z,23.02
2023-02-11T13:59:33.179Z,16.45
2023-02-11T14:04:53.211Z,14.40
2023-02-11T14:09:57.072Z,15.35
2023-02-11T14:15:25.192Z,14.85
2023-02-11T14:20:42.014Z,19.90
2023-02-11T14:31:00.014Z,17.33
2023-02-11T14:36:18.332Z,15.75
2023-02-11T14:41:24.263Z,18.13
2023-02-11T14:46:35.704Z,13.10
2023-02-11T14:51:40.663Z,17.77
2023-02-11T14:56:42.491Z,14.40
2023-02-11T15:01:48.763Z,14.50
2023-02-11T15:06:50.640Z,16.55
2023-02-11T15:11:52.786Z,12.70
2023-02-11T15:16:58.098Z,11.82
2023-02-11T15:21:59.702Z,17.23
2023-02-11T15:27:15.488Z,14.60
2023-02-11T15:32:19.796Z,17.50
2023-02-11T15:37:29.737Z,13.57
2023-02-11T15:42:40.992Z,13.15
2023-02-11T15:47:51.475Z,11.02
2023-02-11T15:52:55.279Z,13.50
2023-02-11T15:58:00.568Z,16.65
2023-02-11T16:03:02.285Z,14.32
2023-02-11T16:08:35.425Z,12.00
2023-02-11T16:13:47.254Z,8.13
2023-02-11T16:19:04.860Z,10.00
2023-02-11T16:24:15.798Z,12.20
2023-02-11T16:29:25.929Z,9.18
2023-02-11T16:34:28.439Z,7.82
2023-02-11T16:39:30.117Z,12.50
2023-02-11T16:44:35.617Z,10.25
2023-02-11T16:49:40.849Z,16.58
2023-02-11T16:54:42.514Z,10.77
2023-02-11T16:59:44.628Z,9.70
2023-02-11T17:04:46.819Z,11.48
2023-02-11T17:09:48.388Z,12.60
2023-02-11T17:14:50.900Z,9.35
2023-02-11T17:19:52.452Z,8.25
2023-02-11T17:24:56.264Z,13.90
2023-02-11T17:30:00.907Z,11.95
2023-02-11T17:35:02.482Z,19.55
2023-02-11T17:40:04.177Z,11.48
2023-02-11T17:45:06.489Z,12.40
2023-02-11T17:50:10.189Z,13.60
2023-02-11T17:55:13.026Z,20.10
2023-02-11T18:00:15.231Z,14.48
2023-02-11T18:05:16.733Z,14.38
2023-02-11T18:10:19.064Z,22.70
2023-02-11T18:15:22.539Z,27.10
2023-02-11T18:20:24.158Z,29.13
2023-02-11T18:25:25.719Z,19.58
2023-02-11T18:30:28.000Z,20.80
2023-02-11T18:35:29.709Z,13.50
2023-02-11T18:40:31.967Z,16.58
2023-02-11T18:45:33.596Z,23.08
2023-02-11T18:50:35.174Z,18.02
2023-02-11T18:55:41.197Z,17.95
2023-02-11T19:00:45.524Z,15.30
2023-02-11T19:05:51.488Z,20.63
2023-02-11T19:10:55.760Z,14.60
2023-02-11T19:15:58.283Z,16.65
2023-02-11T19:21:00.156Z,17.77
2023-02-11T19:26:04.456Z,16.50
2023-02-11T19:31:11.464Z,14.68
2023-02-11T19:36:16.485Z,14.45
2023-02-11T19:41:23.185Z,25.42
2023-02-11T19:51:33.801Z,16.75
2023-02-11T19:56:36.463Z,17.10
2023-02-11T20:01:39.772Z,18.50
2023-02-11T20:06:43.700Z,17.85
2023-02-11T20:11:45.743Z,19.63
2023-02-11T20:16:49.723Z,18.77
2023-02-11T20:21:53.788Z,16.88
2023-02-11T20:26:56.650Z,19.70
2023-02-11T20:31:58.320Z,17.45
2023-02-11T20:37:03.318Z,19.75
2023-02-11T20:42:09.546Z,17.67
2023-02-11T20:47:12.128Z,22.63
2023-02-11T20:52:13.620Z,52.30
2023-02-11T20:57:16.316Z,23.73
2023-02-11T21:02:19.151Z,17.15
2023-02-11T21:07:23.809Z,27.33
2023-02-11T21:12:25.294Z,21.17
2023-02-11T21:17:27.521Z,22.38
2023-02-11T21:22:36.289Z,20.30
2023-02-11T21:27:38.281Z,20.65
2023-02-11T21:32:39.756Z,18.73
2023-02-11T21:37:41.274Z,18.05
2023-02-11T21:42:42.963Z,18.80
2023-02-11T21:47:44.437Z,20.60
2023-02-11T21:52:47.099Z,17.20
2023-02-11T21:57:48.729Z,15.85
2023-02-11T22:02:50.542Z,18.88
2023-02-11T22:07:52.092Z,20.35
2023-02-11T22:12:53.621Z,19.10
2023-02-11T22:17:55.324Z,20.65
2023-02-11T22:22:59.763Z,15.43
2023-02-11T22:28:02.547Z,19.63
2023-02-11T22:33:08.721Z,20.70
2023-02-11T22:38:11.185Z,20.38
2023-02-11T22:43:13.846Z,21.95
2023-02-11T22:48:15.441Z,21.40
2023-02-11T22:53:20.279Z,16.05
2023-02-11T22:58:22.046Z,15.85
2023-02-11T23:03:23.482Z,16.85
2023-02-11T23:08:28.587Z,20.95
2023-02-11T23:13:30.073Z,21.02
2023-02-11T23:18:35.494Z,21.58
2023-02-11T23:23:37.054Z,19.85
2023-02-11T23:28:39.441Z,24.58
2023-02-11T23:33:40.848Z,25.90
2023-02-11T23:38:42.626Z,24.05
2023-02-11T23:43:51.170Z,23.67
2023-02-11T23:48:53.271Z,21.80
2023-02-11T23:53:56.233Z,24.20
2023-02-11T23:58:58.911Z,24.40
